Crestview, FL

8:23 PM CST on January 27, 2015 (GMT -0600)
Steeplechase | Change Station
CLOSE
Current Station
Personal Weather Station
Location: Crestview, FL
Elevation: 250 ft
Nearby Weather Stations

Elev 250 ft 30.73 °N, 86.56 °W | Updated 1 second ago

Clear
Clear
52.7 °F
Feels Like 52.7 °F
N
0.0
Wind Variable Wind from NW
Gusts 0.0 mph

Today
High -- | Low -- °F
--% Chance of Precip.
Yesterday
High -- | Low -- °F
Precip. -- in
6:40 AM 5:17 PM
First Quarter, 60% visible
Pressure 30.10 in
Visibility 10.0 miles
Clouds Clear
Dew Point 39 °F
Humidity 59%
Rainfall 0.00 in
Snow Depth Not available.
UV 0 out of 12
Pollen 6.40 out of 12
Air Quality Not available.
Flu Activity Not available.
METAR KCEW 280153Z AUTO 00000KT 10SM CLR 08/03 A3010 RMK AO2 SLP191 T00830028

More Conditions Fewer Conditions

Pressure 30.10 in
Visibility 10.0 miles
Clouds Clear
Dew Point 39 °F
Humidity 59%
Rainfall 0.00 in
Snow Depth Not available.
UV 0 out of 12
Pollen 6.40 out of 12
Air Quality Not available.
Flu Activity Not available.
METAR KCEW 280153Z AUTO 00000KT 10SM CLR 08/03 A3010 RMK AO2 SLP191 T00830028

More Conditions Fewer Conditions

10-Day Weather Forecast

Almanac

Astronomy

Jan. 27, 2015 Rise Set
Actual Time
Civil Twilight
Nautical Twilight
Astronomical Twilight
Moon
Length of Visible Light
Length of Day
Tomorrow will be .
, % of the Moon is Illuminated

Today's Extremes

State Highs State Lows

Community

WunderPhotos

Upload Photos

1,791,055 photos uploaded!

WunderBlogs® & News

Nearby

Air Quality

  Air Quality AQ Index Pollutant
Not available.

Snow Depth

Station Depth Elevation

Earthquake Activity

City Distance Mag. Time & Date
Minimum magnitude displayed is 2.5.

Coastal Water Temperatures

Place Temperature

Nearby Weather Stations